createdAt,value
2019-02-02T00:01:08.203Z,14.40
2019-02-02T00:03:37.851Z,13.43
2019-02-02T00:06:07.535Z,14.27
2019-02-02T00:08:37.186Z,14.30
2019-02-02T00:11:06.930Z,12.30
2019-02-02T00:13:36.556Z,12.63
2019-02-02T00:16:06.725Z,13.17
2019-02-02T00:18:36.241Z,12.80
2019-02-02T00:21:06.648Z,13.50
2019-02-02T00:23:36.311Z,12.17
2019-02-02T00:26:06.307Z,13.00
2019-02-02T00:28:36.119Z,12.50
2019-02-02T00:31:05.941Z,13.17
2019-02-02T00:33:35.367Z,11.50
2019-02-02T00:36:04.997Z,11.23
2019-02-02T00:38:34.474Z,11.80
2019-02-02T00:41:04.168Z,10.87
2019-02-02T00:43:34.057Z,11.90
2019-02-02T00:46:04.041Z,11.80
2019-02-02T00:48:33.584Z,11.93
2019-02-02T00:51:03.087Z,12.13
2019-02-02T00:53:32.789Z,11.77
2019-02-02T00:56:02.425Z,10.87
2019-02-02T00:58:32.057Z,11.70
2019-02-02T01:01:01.678Z,11.97
2019-02-02T01:03:31.346Z,12.37
2019-02-02T01:06:01.172Z,12.10
2019-02-02T01:08:30.757Z,12.00
2019-02-02T01:11:00.289Z,12.43
2019-02-02T01:13:29.827Z,10.57
2019-02-02T01:15:59.317Z,11.67
2019-02-02T01:18:28.839Z,11.60
2019-02-02T01:20:58.457Z,12.87
2019-02-02T01:23:27.914Z,12.60
2019-02-02T01:25:57.326Z,11.63
2019-02-02T01:28:26.786Z,12.80
2019-02-02T01:30:56.379Z,12.30
2019-02-02T01:33:25.832Z,12.70
2019-02-02T01:35:55.437Z,12.70
2019-02-02T01:38:24.923Z,12.87
2019-02-02T01:40:54.373Z,13.50
2019-02-02T01:43:23.835Z,13.17
2019-02-02T01:45:53.380Z,12.87
2019-02-02T01:48:22.828Z,12.67
2019-02-02T01:50:52.437Z,13.20
2019-02-02T01:53:22.042Z,14.13
2019-02-02T01:55:51.455Z,13.37
2019-02-02T01:58:20.906Z,13.20
2019-02-02T02:00:50.434Z,13.17
2019-02-02T02:03:19.871Z,12.97
2019-02-02T02:05:49.400Z,13.53
2019-02-02T02:08:18.968Z,13.93
2019-02-02T02:10:48.571Z,15.27
2019-02-02T02:13:18.062Z,14.40
2019-02-02T02:15:47.658Z,15.57
2019-02-02T02:18:17.239Z,14.80
2019-02-02T02:20:46.666Z,14.27
2019-02-02T02:23:16.100Z,15.27
2019-02-02T02:25:45.631Z,13.93
2019-02-02T02:28:15.090Z,14.27
2019-02-02T02:30:47.276Z,14.90
2019-02-02T02:33:15.768Z,15.07
2019-02-02T02:35:45.340Z,14.77
2019-02-02T02:38:14.804Z,14.87
2019-02-02T02:40:44.286Z,14.63
2019-02-02T02:43:13.799Z,15.37
2019-02-02T02:45:43.252Z,16.30
2019-02-02T02:48:12.840Z,15.00
2019-02-02T02:50:42.259Z,15.63
2019-02-02T02:53:11.723Z,13.63
2019-02-02T02:55:41.255Z,14.50
2019-02-02T02:58:10.744Z,14.90
2019-02-02T03:00:40.186Z,14.40
2019-02-02T03:03:09.741Z,14.80
2019-02-02T03:05:39.199Z,15.87
2019-02-02T03:08:08.907Z,14.63
2019-02-02T03:10:38.487Z,14.83
2019-02-02T03:13:08.100Z,15.00
2019-02-02T03:15:37.553Z,15.07
2019-02-02T03:18:07.233Z,15.50
2019-02-02T03:20:36.675Z,15.37
2019-02-02T03:23:06.197Z,16.20
2019-02-02T03:25:35.673Z,15.63
2019-02-02T03:28:05.137Z,14.83
2019-02-02T03:30:34.734Z,14.77
2019-02-02T03:33:04.451Z,15.13
2019-02-02T03:35:33.884Z,15.10
2019-02-02T03:38:03.319Z,15.73
2019-02-02T03:40:32.798Z,15.60
2019-02-02T03:43:02.301Z,15.20
2019-02-02T03:45:31.801Z,15.93
2019-02-02T03:48:01.261Z,16.87
2019-02-02T03:50:30.852Z,15.77
2019-02-02T03:53:00.506Z,16.43
2019-02-02T03:55:29.959Z,16.30
2019-02-02T03:57:59.380Z,16.30
2019-02-02T04:00:28.932Z,15.80
2019-02-02T04:02:58.367Z,15.17
2019-02-02T04:05:30.270Z,16.17
2019-02-02T04:07:59.865Z,16.17
2019-02-02T04:10:29.381Z,16.40
2019-02-02T04:12:58.942Z,17.03
2019-02-02T04:15:28.470Z,17.13
2019-02-02T04:17:57.929Z,17.90
2019-02-02T04:20:27.619Z,16.87
2019-02-02T04:22:57.196Z,16.73
2019-02-02T04:25:26.822Z,17.70
2019-02-02T04:27:56.390Z,17.17
2019-02-02T04:30:27.745Z,18.93
2019-02-02T04:32:57.378Z,18.00
2019-02-02T04:35:26.955Z,18.43
2019-02-02T04:37:56.399Z,18.53
2019-02-02T04:40:25.937Z,20.00
2019-02-02T04:42:55.395Z,18.10
2019-02-02T04:45:24.922Z,19.70
2019-02-02T04:47:54.442Z,18.53
2019-02-02T04:50:23.947Z,18.43
2019-02-02T04:52:53.402Z,18.33
2019-02-02T04:55:22.939Z,19.27
2019-02-02T04:57:52.381Z,20.63
2019-02-02T05:00:27.240Z,19.63
2019-02-02T05:02:56.901Z,20.80
2019-02-02T05:05:26.575Z,20.23
2019-02-02T05:07:56.039Z,18.80
2019-02-02T05:10:26.651Z,20.10
2019-02-02T05:12:56.171Z,20.13
2019-02-02T05:15:25.629Z,18.00
2019-02-02T05:17:55.070Z,22.00
2019-02-02T05:20:24.485Z,20.70
2019-02-02T05:22:53.963Z,20.83
2019-02-02T05:25:23.559Z,20.10
2019-02-02T05:27:53.734Z,23.20
2019-02-02T05:30:31.846Z,22.83
2019-02-02T05:33:01.365Z,22.97
2019-02-02T05:35:30.813Z,22.07
2019-02-02T05:38:00.373Z,22.40
2019-02-02T05:40:29.918Z,20.70
2019-02-02T05:42:59.472Z,21.53
2019-02-02T05:45:28.943Z,21.43
2019-02-02T05:47:58.380Z,20.30
2019-02-02T05:50:27.847Z,20.90
2019-02-02T05:52:57.252Z,22.07
2019-02-02T05:55:26.693Z,21.43
2019-02-02T05:57:56.107Z,20.40
2019-02-02T06:00:36.745Z,21.30
2019-02-02T06:03:06.490Z,22.17
2019-02-02T06:05:36.059Z,22.83
2019-02-02T06:08:05.899Z,22.13
2019-02-02T06:10:35.328Z,22.40
2019-02-02T06:13:04.881Z,23.50
2019-02-02T06:15:34.338Z,23.37
2019-02-02T06:18:05.114Z,23.40
2019-02-02T06:20:34.580Z,22.70
2019-02-02T06:23:04.139Z,24.00
2019-02-02T06:25:33.591Z,22.60
2019-02-02T06:28:03.097Z,22.43
2019-02-02T06:30:32.697Z,22.63
2019-02-02T06:33:02.233Z,23.07
2019-02-02T06:35:31.677Z,24.40
2019-02-02T06:38:01.132Z,23.43
2019-02-02T06:40:30.659Z,21.90
2019-02-02T06:43:00.250Z,21.90
2019-02-02T06:45:33.308Z,23.30
2019-02-02T06:48:04.584Z,22.00
2019-02-02T06:50:34.176Z,22.53
2019-02-02T06:53:04.270Z,24.30
2019-02-02T06:55:33.801Z,24.67
2019-02-02T06:58:03.408Z,22.77
2019-02-02T07:00:32.826Z,22.40
2019-02-02T07:03:02.393Z,23.13
2019-02-02T07:05:33.956Z,23.33
2019-02-02T07:08:03.378Z,22.03
2019-02-02T07:10:32.891Z,23.33
2019-02-02T07:13:02.438Z,23.33
2019-02-02T07:15:32.824Z,23.03
2019-02-02T07:18:02.384Z,25.27
2019-02-02T07:20:31.902Z,23.63
2019-02-02T07:23:01.562Z,26.47
2019-02-02T07:25:30.973Z,25.43
2019-02-02T07:28:00.405Z,24.50
2019-02-02T07:30:29.992Z,24.37
2019-02-02T07:32:59.742Z,24.90
2019-02-02T07:35:29.299Z,25.40
2019-02-02T07:37:58.780Z,25.93
2019-02-02T07:40:28.210Z,25.53
2019-02-02T07:42:57.742Z,25.47
2019-02-02T07:45:30.838Z,24.87
2019-02-02T07:48:00.311Z,23.57
2019-02-02T07:50:29.819Z,24.60
2019-02-02T07:52:59.317Z,27.03
2019-02-02T07:55:28.823Z,25.17
2019-02-02T07:57:58.269Z,25.40
2019-02-02T08:00:41.396Z,26.97
2019-02-02T08:03:08.679Z,26.10
2019-02-02T08:05:38.292Z,27.97
2019-02-02T08:08:08.082Z,27.63
2019-02-02T08:10:37.663Z,28.27
2019-02-02T08:13:07.412Z,26.97
2019-02-02T08:15:36.945Z,26.27
2019-02-02T08:18:07.090Z,28.57
2019-02-02T08:20:36.656Z,27.27
2019-02-02T08:23:06.508Z,25.20
2019-02-02T08:25:36.385Z,26.33
2019-02-02T08:28:07.704Z,26.57
2019-02-02T08:30:38.058Z,26.93
2019-02-02T08:33:07.922Z,26.33
2019-02-02T08:35:37.603Z,25.87
2019-02-02T08:38:07.491Z,26.17
2019-02-02T08:40:37.005Z,25.20
2019-02-02T08:43:06.627Z,25.07
2019-02-02T08:45:36.214Z,27.40
2019-02-02T08:48:05.808Z,26.10
2019-02-02T08:50:37.219Z,25.30
2019-02-02T08:53:07.460Z,25.27
2019-02-02T08:55:36.957Z,26.43
2019-02-02T08:58:06.542Z,24.73
2019-02-02T09:00:36.628Z,26.00
2019-02-02T09:03:06.481Z,25.80
2019-02-02T09:05:37.783Z,25.73
2019-02-02T09:08:07.543Z,26.67
2019-02-02T09:10:37.058Z,26.57
2019-02-02T09:13:06.576Z,27.10
2019-02-02T09:15:36.256Z,26.33
2019-02-02T09:18:06.673Z,26.33
2019-02-02T09:20:36.259Z,24.67
2019-02-02T09:23:06.775Z,25.80
2019-02-02T09:25:36.354Z,28.27
2019-02-02T09:28:05.952Z,25.63
2019-02-02T09:30:37.410Z,25.53
2019-02-02T09:33:07.493Z,27.43
2019-02-02T09:35:37.080Z,27.90
2019-02-02T09:38:07.040Z,25.80
2019-02-02T09:40:36.581Z,26.23
2019-02-02T09:43:06.945Z,29.43
2019-02-02T09:45:36.542Z,27.40
2019-02-02T09:48:06.352Z,27.03
2019-02-02T09:50:35.912Z,26.17
2019-02-02T09:53:05.572Z,28.50
2019-02-02T09:55:35.273Z,28.63
2019-02-02T09:58:09.006Z,27.93
2019-02-02T10:00:38.563Z,27.87
2019-02-02T10:03:08.113Z,29.27
2019-02-02T10:05:37.613Z,28.33
2019-02-02T10:08:07.385Z,31.83
2019-02-02T10:10:36.936Z,29.03
2019-02-02T10:13:07.101Z,28.73
2019-02-02T10:15:36.785Z,25.23
2019-02-02T10:18:06.768Z,27.97
2019-02-02T10:20:36.232Z,27.63
2019-02-02T10:23:06.103Z,28.37
2019-02-02T10:25:36.008Z,27.40
2019-02-02T10:28:06.265Z,29.27
2019-02-02T10:30:41.354Z,25.27
2019-02-02T10:33:11.023Z,29.10
2019-02-02T10:35:40.595Z,29.63
2019-02-02T10:38:10.394Z,28.10
2019-02-02T10:40:40.044Z,27.40
2019-02-02T10:43:09.796Z,29.60
2019-02-02T10:45:39.475Z,29.07
2019-02-02T10:48:09.343Z,28.43
2019-02-02T10:50:38.924Z,30.43
2019-02-02T10:53:08.485Z,30.57
2019-02-02T10:55:38.141Z,27.43
2019-02-02T10:58:08.108Z,28.87
2019-02-02T11:00:39.998Z,30.53
2019-02-02T11:03:09.580Z,29.77
2019-02-02T11:05:39.402Z,27.73
2019-02-02T11:08:09.326Z,28.50
2019-02-02T11:10:39.299Z,28.23
2019-02-02T11:13:08.888Z,29.17
2019-02-02T11:15:38.431Z,28.53
2019-02-02T11:18:08.904Z,28.30
2019-02-02T11:20:38.901Z,27.73
2019-02-02T11:23:08.577Z,28.23
2019-02-02T11:25:38.278Z,29.27
2019-02-02T11:28:08.013Z,26.97
2019-02-02T11:30:37.575Z,28.20
2019-02-02T11:33:07.330Z,27.67
2019-02-02T11:35:37.038Z,29.67
2019-02-02T11:38:06.718Z,30.10
2019-02-02T11:40:36.828Z,28.70
2019-02-02T11:43:06.578Z,32.13
2019-02-02T11:45:36.224Z,30.93
2019-02-02T11:48:05.887Z,30.27
2019-02-02T11:50:35.579Z,31.13
2019-02-02T11:53:05.697Z,28.93
2019-02-02T11:55:35.243Z,28.43
2019-02-02T11:58:04.950Z,30.87
2019-02-02T12:00:38.609Z,30.43
2019-02-02T12:03:08.070Z,30.33
2019-02-02T12:05:37.935Z,30.33
2019-02-02T12:08:07.644Z,28.70
2019-02-02T12:10:37.417Z,29.63
2019-02-02T12:13:07.102Z,28.60
2019-02-02T12:15:36.814Z,30.67
2019-02-02T12:18:06.728Z,26.53
2019-02-02T12:20:36.329Z,31.37
2019-02-02T12:23:06.132Z,29.23
2019-02-02T12:25:35.860Z,28.20
2019-02-02T12:28:09.092Z,28.73
2019-02-02T12:30:37.626Z,32.53
2019-02-02T12:33:07.393Z,30.73
2019-02-02T12:35:37.150Z,31.10
2019-02-02T12:38:07.065Z,29.90
2019-02-02T12:40:36.883Z,31.13
2019-02-02T12:43:06.584Z,32.23
2019-02-02T12:45:54.557Z,28.63
2019-02-02T12:48:24.281Z,31.17
2019-02-02T12:50:53.864Z,28.87
2019-02-02T12:53:23.407Z,28.73
2019-02-02T12:55:53.132Z,29.80
2019-02-02T12:58:22.802Z,32.67
2019-02-02T13:00:52.334Z,29.90
2019-02-02T13:03:21.881Z,30.93
2019-02-02T13:05:51.382Z,29.80
2019-02-02T13:08:20.853Z,31.10
2019-02-02T13:10:50.372Z,30.90
2019-02-02T13:13:19.792Z,29.43
2019-02-02T13:15:49.250Z,29.63
2019-02-02T13:18:18.711Z,29.33
2019-02-02T13:20:48.192Z,26.77
2019-02-02T13:23:17.686Z,28.27
2019-02-02T13:25:47.217Z,27.20
2019-02-02T13:28:16.681Z,24.30
2019-02-02T13:30:46.168Z,25.83
2019-02-02T13:33:15.634Z,28.40
2019-02-02T13:35:45.303Z,26.00
2019-02-02T13:38:14.851Z,27.43
2019-02-02T13:40:44.317Z,26.73
2019-02-02T13:43:13.840Z,27.43
2019-02-02T13:45:43.347Z,26.57
2019-02-02T13:48:12.799Z,24.97
2019-02-02T13:50:42.300Z,26.20
2019-02-02T13:53:11.903Z,24.73
2019-02-02T13:55:41.354Z,26.07
2019-02-02T13:58:10.895Z,24.27
2019-02-02T14:00:40.523Z,24.03
2019-02-02T14:03:10.033Z,24.30
2019-02-02T14:05:39.623Z,25.20
2019-02-02T14:08:09.250Z,25.47
2019-02-02T14:10:38.902Z,24.03
2019-02-02T14:13:08.408Z,24.97
2019-02-02T14:15:39.381Z,22.30
2019-02-02T14:18:09.300Z,24.27
2019-02-02T14:20:38.747Z,23.63
2019-02-02T14:23:08.185Z,22.43
2019-02-02T14:25:37.635Z,24.40
2019-02-02T14:28:07.241Z,23.67
2019-02-02T14:30:36.765Z,22.97
2019-02-02T14:33:13.616Z,24.47
2019-02-02T14:35:37.646Z,25.17
2019-02-02T14:38:07.062Z,23.73
2019-02-02T14:40:36.519Z,22.73
2019-02-02T14:43:06.219Z,24.23
2019-02-02T14:45:35.684Z,24.07
2019-02-02T14:48:05.373Z,22.10
2019-02-02T14:50:34.820Z,21.43
2019-02-02T14:53:04.786Z,24.57
2019-02-02T14:55:34.353Z,23.90
2019-02-02T14:58:04.841Z,25.03
2019-02-02T15:00:34.459Z,24.50
2019-02-02T15:03:04.135Z,24.43
2019-02-02T15:05:42.504Z,25.00
2019-02-02T15:08:05.000Z,25.87
2019-02-02T15:10:34.463Z,24.37
2019-02-02T15:13:04.135Z,25.93
2019-02-02T15:15:33.722Z,26.50
2019-02-02T15:18:03.186Z,27.30
2019-02-02T15:20:35.660Z,26.03
2019-02-02T15:23:05.721Z,25.97
2019-02-02T15:25:35.430Z,27.73
2019-02-02T15:28:05.002Z,27.90
2019-02-02T15:30:38.614Z,28.60
2019-02-02T15:33:08.226Z,30.20
2019-02-02T15:35:37.806Z,28.97
2019-02-02T15:38:07.320Z,28.47
2019-02-02T15:40:36.789Z,28.67
2019-02-02T15:43:06.502Z,27.30
2019-02-02T15:45:36.082Z,30.80
2019-02-02T15:48:05.953Z,30.60
2019-02-02T15:50:35.387Z,31.30
2019-02-02T15:53:04.979Z,31.70
2019-02-02T15:55:34.459Z,31.13
2019-02-02T15:58:04.046Z,31.20
2019-02-02T16:00:36.828Z,26.97
2019-02-02T16:03:06.921Z,29.53
2019-02-02T16:05:37.052Z,29.40
2019-02-02T16:08:10.921Z,29.97
2019-02-02T16:10:40.532Z,32.33
2019-02-02T16:13:10.037Z,32.10
2019-02-02T16:15:39.472Z,31.30
2019-02-02T16:18:09.106Z,29.23
2019-02-02T16:20:43.995Z,28.97
2019-02-02T16:23:13.585Z,28.10
2019-02-02T16:25:43.217Z,30.33
2019-02-02T16:28:13.017Z,33.97
2019-02-02T16:30:42.532Z,30.83
2019-02-02T16:33:12.193Z,29.80
2019-02-02T16:35:41.810Z,31.83
2019-02-02T16:38:11.880Z,28.97
2019-02-02T16:40:41.488Z,28.63
2019-02-02T16:43:11.323Z,28.47
2019-02-02T16:45:40.900Z,27.40
2019-02-02T16:48:10.425Z,30.43
2019-02-02T16:50:39.907Z,31.30
2019-02-02T16:53:09.453Z,27.27
2019-02-02T16:55:38.905Z,29.33
2019-02-02T16:58:08.646Z,27.90
2019-02-02T17:00:38.950Z,28.50
2019-02-02T17:03:08.457Z,28.73
2019-02-02T17:05:38.088Z,27.17
2019-02-02T17:08:07.873Z,26.87
2019-02-02T17:10:38.044Z,28.63
2019-02-02T17:13:08.135Z,28.93
2019-02-02T17:15:37.736Z,27.07
2019-02-02T17:18:07.671Z,28.47
2019-02-02T17:20:40.439Z,27.83
2019-02-02T17:23:10.125Z,27.13
2019-02-02T17:25:39.822Z,30.13
2019-02-02T17:28:09.438Z,28.23
2019-02-02T17:30:39.036Z,28.80
2019-02-02T17:33:12.216Z,27.27
2019-02-02T17:35:41.829Z,28.10
2019-02-02T17:38:11.532Z,27.03
2019-02-02T17:40:41.001Z,25.67
2019-02-02T17:43:10.434Z,27.80
2019-02-02T17:45:39.970Z,24.90
2019-02-02T17:48:09.772Z,24.77
2019-02-02T17:50:39.669Z,27.03
2019-02-02T17:53:10.798Z,26.23
2019-02-02T17:55:40.280Z,27.00
2019-02-02T17:58:09.739Z,28.27
2019-02-02T18:00:43.565Z,25.20
2019-02-02T18:03:13.073Z,26.00
2019-02-02T18:05:42.588Z,26.53
2019-02-02T18:08:12.151Z,26.57
2019-02-02T18:10:41.716Z,27.63
2019-02-02T18:13:11.310Z,27.83
2019-02-02T18:15:40.854Z,26.23
2019-02-02T18:18:10.793Z,25.33
2019-02-02T18:20:40.242Z,27.53
2019-02-02T18:23:09.701Z,25.43
2019-02-02T18:25:39.206Z,27.87
2019-02-02T18:28:08.710Z,28.27
2019-02-02T18:30:38.261Z,28.83
2019-02-02T18:33:07.754Z,26.53
2019-02-02T18:35:37.301Z,26.57
2019-02-02T18:38:06.992Z,24.70
2019-02-02T18:40:36.509Z,28.17
2019-02-02T18:43:06.139Z,29.13
2019-02-02T18:45:35.677Z,28.43
2019-02-02T18:48:05.639Z,28.97
2019-02-02T18:50:35.182Z,26.77
2019-02-02T18:53:04.821Z,27.23
2019-02-02T18:55:48.538Z,27.00
2019-02-02T18:58:17.974Z,29.13
2019-02-02T19:00:47.510Z,27.67
2019-02-02T19:03:16.983Z,28.03
2019-02-02T19:05:46.476Z,28.67
2019-02-02T19:08:15.928Z,29.87
2019-02-02T19:10:45.483Z,28.63
2019-02-02T19:13:15.062Z,29.80
2019-02-02T19:15:44.489Z,30.30
2019-02-02T19:18:14.010Z,26.63
2019-02-02T19:20:43.464Z,29.70
2019-02-02T19:23:24.263Z,26.37
2019-02-02T19:25:44.127Z,27.17
2019-02-02T19:28:13.565Z,30.47
2019-02-02T19:30:43.017Z,29.13
2019-02-02T19:33:12.542Z,27.53
2019-02-02T19:35:41.980Z,25.27
2019-02-02T19:38:11.495Z,26.90
2019-02-02T19:40:40.981Z,28.23
2019-02-02T19:43:10.490Z,30.87
2019-02-02T19:45:40.020Z,28.53
2019-02-02T19:48:09.690Z,29.43
2019-02-02T19:50:39.171Z,30.87
2019-02-02T19:53:08.841Z,29.17
2019-02-02T19:55:38.238Z,32.27
2019-02-02T19:58:07.805Z,30.13
2019-02-02T20:00:37.402Z,29.17
2019-02-02T20:03:06.949Z,29.17
2019-02-02T20:05:36.638Z,31.40
2019-02-02T20:08:06.639Z,31.60
2019-02-02T20:10:36.217Z,31.50
2019-02-02T20:13:06.184Z,31.60
2019-02-02T20:15:35.654Z,33.03
2019-02-02T20:18:10.029Z,33.50
2019-02-02T20:20:36.523Z,34.33
2019-02-02T20:23:06.444Z,31.67
2019-02-02T20:25:35.889Z,32.63
2019-02-02T20:28:05.517Z,32.97
2019-02-02T20:30:35.204Z,34.87
2019-02-02T20:33:05.259Z,33.47
2019-02-02T20:35:41.973Z,30.27
2019-02-02T20:38:06.265Z,32.17
2019-02-02T20:40:35.723Z,33.30
2019-02-02T20:43:05.443Z,35.60
2019-02-02T20:45:38.305Z,33.63
2019-02-02T20:48:07.750Z,34.47
2019-02-02T20:50:37.317Z,33.27
2019-02-02T20:53:07.004Z,32.77
2019-02-02T20:55:40.949Z,32.87
2019-02-02T20:58:10.583Z,32.17
2019-02-02T21:00:40.683Z,31.97
2019-02-02T21:03:10.209Z,31.27
2019-02-02T21:05:51.623Z,30.53
2019-02-02T21:08:11.037Z,29.07
2019-02-02T21:10:40.495Z,26.70
2019-02-02T21:13:10.112Z,26.83
2019-02-02T21:15:39.565Z,27.17
2019-02-02T21:18:11.844Z,27.93
2019-02-02T21:20:40.456Z,25.57
2019-02-02T21:23:09.878Z,26.33
2019-02-02T21:25:39.332Z,26.47
2019-02-02T21:28:08.958Z,26.83
2019-02-02T21:30:38.576Z,25.33
2019-02-02T21:33:08.522Z,25.70
2019-02-02T21:35:37.793Z,23.03
2019-02-02T21:38:07.485Z,24.30
2019-02-02T21:40:37.058Z,22.30
2019-02-02T21:43:07.611Z,24.70
2019-02-02T21:45:37.520Z,24.07
2019-02-02T21:48:07.208Z,25.03
2019-02-02T21:50:36.705Z,25.07
2019-02-02T21:53:06.602Z,21.73
2019-02-02T21:55:36.069Z,23.90
2019-02-02T21:58:06.539Z,23.77
2019-02-02T22:00:41.826Z,25.53
2019-02-02T22:03:11.607Z,26.33
2019-02-02T22:05:41.058Z,23.67
2019-02-02T22:08:11.267Z,24.40
2019-02-02T22:10:41.115Z,27.07
2019-02-02T22:13:10.832Z,26.40
2019-02-02T22:15:40.439Z,26.23
2019-02-02T22:18:10.039Z,28.60
2019-02-02T22:20:39.720Z,25.27
2019-02-02T22:23:09.547Z,26.97
2019-02-02T22:25:39.133Z,26.90
2019-02-02T22:28:08.755Z,26.03
2019-02-02T22:30:38.980Z,29.90
2019-02-02T22:33:08.431Z,28.43
2019-02-02T22:35:37.925Z,28.63
2019-02-02T22:38:07.663Z,25.80
2019-02-02T22:40:37.309Z,27.47
2019-02-02T22:43:07.066Z,26.23
2019-02-02T22:45:36.574Z,26.90
2019-02-02T22:48:06.679Z,28.10
2019-02-02T22:50:36.342Z,29.73
2019-02-02T22:53:06.239Z,30.23
2019-02-02T22:55:35.788Z,28.83
2019-02-02T22:58:05.637Z,27.37
2019-02-02T23:00:50.019Z,27.37
2019-02-02T23:03:33.396Z,29.47
2019-02-02T23:06:38.544Z,29.60
2019-02-02T23:09:37.953Z,26.63
2019-02-02T23:12:31.687Z,29.37
2019-02-02T23:15:31.183Z,30.97
2019-02-02T23:18:00.655Z,30.43
2019-02-02T23:20:30.140Z,33.80
2019-02-02T23:22:59.604Z,33.47
2019-02-02T23:25:29.088Z,32.43
2019-02-02T23:27:59.135Z,31.33
2019-02-02T23:30:28.808Z,31.40
2019-02-02T23:32:58.336Z,33.00
2019-02-02T23:35:27.871Z,32.10
2019-02-02T23:37:57.412Z,31.17
2019-02-02T23:40:26.943Z,33.20
2019-02-02T23:42:56.295Z,37.00
2019-02-02T23:45:26.166Z,37.83
2019-02-02T23:47:55.671Z,37.23
2019-02-02T23:50:25.088Z,35.57
2019-02-02T23:52:54.542Z,36.73
2019-02-02T23:55:24.022Z,38.37
2019-02-02T23:57:53.437Z,40.60
